Data for 12/21/2006

Time Sea-Level Adjusted Pressure Absolute Pressure Temperature Relative Humidity Dew Point   
(mb) (inHg) (mb) (inHg) (C) (F) (%) (C) (F)
00:05 1021 30.15 850 25.1 -6.6 20 65 -12.2 10
00:10 1020 30.12 850 25.1 -6.7 19.9 64 -12.4 9.7
00:15 1020 30.12 850 25.1 -6.3 20.7 63 -12.3 9.9
00:20 1020 30.12 850 25.1 -6.6 20.1 64 -12.3 9.8
00:25 1020 30.12 849 25.07 -6.8 19.8 65 -12.2 10
00:30 1020 30.12 849 25.07 -6.5 20.2 63 -12.5 9.5
00:35 1020 30.12 849 25.07 -6.4 20.6 63 -12.3 9.8
00:40 1020 30.12 849 25.07 -6.3 20.6 63 -12.3 9.9
00:45 1020 30.12 849 25.07 -6.6 20.1 63 -12.5 9.4
00:50 1020 30.12 849 25.07 -6.9 19.6 64 -12.5 9.5
00:55 1020 30.12 849 25.07 -6.8 19.7 64 -12.6 9.4
01:00 1020 30.12 849 25.07 -6.7 19.9 64 -12.5 9.5
01:05 1020 30.12 849 25.07 -6.3 20.7 62 -12.5 9.5
01:10 1020 30.12 849 25.07 -6 21.3 61 -12.4 9.7
01:15 1020 30.12 849 25.07 -6 21.2 61 -12.4 9.7
01:20 1020 30.12 849 25.07 -6.3 20.7 62 -12.4 9.7
01:25 1020 30.12 849 25.07 -6.2 20.9 62 -12.4 9.7
01:30 1020 30.12 849 25.07 -6.3 20.7 63 -12.2 10
01:35 1020 30.12 849 25.07 -6.3 20.6 63 -12.3 9.9
01:40 1020 30.12 849 25.07 -6.3 20.7 62 -12.4 9.7
01:45 1020 30.12 849 25.07 -6 21.2 61 -12.4 9.7
01:50 1020 30.12 849 25.07 -6.1 21.1 62 -12.3 9.9
01:55 1020 30.12 849 25.07 -6.4 20.4 61 -12.8 9
02:00 1020 30.12 849 25.07 -6.8 19.8 60 -13.3 8.1
02:05 1020 30.12 849 25.07 -7.1 19.3 61 -13.4 7.9
02:10 1020 30.12 849 25.07 -7.1 19.2 61 -13.5 7.7
02:15 1020 30.12 849 25.07 -7.4 18.6 62 -13.5 7.7
02:20 1020 30.12 849 25.07 -7.4 18.6 61 -13.8 7.2
02:25 1020 30.12 849 25.07 -6.8 19.7 59 -13.5 7.8
02:30 1020 30.12 849 25.07 -6.2 20.8 59 -13.1 8.4
02:35 1020 30.12 849 25.07 -6.2 20.8 60 -12.8 8.9
02:40 1019 30.09 849 25.07 -5.7 21.8 57 -12.9 8.8
02:45 1019 30.09 849 25.07 -5.7 21.8 58 -12.8 9
02:50 1019 30.09 849 25.07 -6.2 20.9 60 -12.8 8.9
02:55 1019 30.09 849 25.07 -6.4 20.4 60 -13 8.6
03:00 1019 30.09 849 25.07 -6.6 20.1 61 -12.9 8.8
03:05 1019 30.09 849 25.07 -6.7 19.9 62 -12.8 9
03:10 1019 30.09 848 25.04 -6.5 20.2 62 -12.7 9.1
03:15 1019 30.09 849 25.07 -6.6 20.2 62 -12.8 9
03:20 1019 30.09 849 25.07 -6.8 19.8 64 -12.6 9.3
03:25 1019 30.09 849 25.07 -7.2 19 65 -12.7 9.2
03:30 1019 30.09 848 25.04 -7.5 18.4 66 -12.8 8.9
03:35 1019 30.09 848 25.04 -7.2 19 65 -12.8 9
03:40 1019 30.09 848 25.04 -6.9 19.7 64 -12.7 9.2
03:45 1019 30.09 848 25.04 -6.8 19.8 63 -12.6 9.3
03:50 1019 30.09 848 25.04 -6.8 19.8 64 -12.6 9.4
03:55 1019 30.09 848 25.04 -6.7 20 63 -12.5 9.5
04:00 1019 30.09 848 25.04 -6.5 20.3 63 -12.3 9.8
04:05 1019 30.09 848 25.04 -6 21.2 61 -12.4 9.6
04:10 1019 30.09 848 25.04 -5.9 21.3 60 -12.4 9.6
04:15 1019 30.09 848 25.04 -5.9 21.3 60 -12.6 9.4
04:20 1019 30.09 848 25.04 -6.6 20.1 63 -12.6 9.4
04:25 1019 30.09 848 25.04 -6.8 19.8 63 -12.8 9
04:30 1019 30.09 848 25.04 -6.6 20.2 62 -12.7 9.1
04:35 1019 30.09 848 25.04 -6.4 20.5 61 -12.7 9.1
04:40 1019 30.09 848 25.04 -6.3 20.6 60 -12.9 8.8
04:45 1019 30.09 848 25.04 -6.5 20.3 59 -13.2 8.3
04:50 1019 30.09 848 25.04 -7 19.4 59 -13.8 7.1
04:55 1019 30.09 848 25.04 -7.5 18.5 62 -13.6 7.6
05:00 1019 30.09 848 25.04 -8 17.6 67 -13.1 8.4
05:05 1019 30.09 848 25.04 -7.9 17.9 61 -14.1 6.6
05:10 1019 30.09 848 25.04 -7.9 17.9 61 -14.1 6.6
05:15 1019 30.09 848 25.04 -8.1 17.5 60 -14.5 5.9
05:20 1019 30.09 848 25.04 -8.3 17.1 60 -14.7 5.6
05:25 1019 30.09 848 25.04 -8.4 16.8 59 -15 4.9
05:30 1019 30.09 848 25.04 -7.8 17.9 60 -14.2 6.4
05:35 1019 30.09 848 25.04 -8.3 17 62 -14.3 6.3
05:40 1019 30.09 848 25.04 -8.8 16.2 66 -14.1 6.6
05:45 1018 30.06 848 25.04 -8 17.6 63 -13.8 7.2
05:50 1018 30.06 848 25.04 -8.2 17.3 64 -13.8 7.2
05:55 1018 30.06 847 25.01 -8.4 17 65 -13.7 7.3
06:00 1018 30.06 847 25.01 -8.1 17.5 65 -13.6 7.6
06:05 1018 30.06 847 25.01 -7.6 18.3 63 -13.5 7.8
06:10 1018 30.06 847 25.01 -7.5 18.6 63 -13.4 7.8
06:15 1018 30.06 847 25.01 -6.9 19.6 61 -13.2 8.2
06:20 1018 30.06 847 25.01 -6.4 20.6 58 -13.2 8.2
06:25 1018 30.06 847 25.01 -6.3 20.6 58 -13.3 8.1
06:30 1018 30.06 847 25.01 -6.5 20.2 59 -13.3 8
06:35 1018 30.06 847 25.01 -6.8 19.8 59 -13.4 7.9
06:40 1018 30.06 847 25.01 -6.7 19.9 59 -13.5 7.7
06:45 1018 30.06 847 25.01 -6.4 20.5 57 -13.5 7.7
06:50 1018 30.06 847 25.01 -6.4 20.5 57 -13.5 7.7
06:55 1018 30.06 847 25.01 -6.5 20.3 58 -13.4 7.9
07:00 1018 30.06 847 25.01 -6.9 19.5 60 -13.5 7.7
07:05 1018 30.06 847 25.01 -7.3 18.8 61 -13.7 7.4
07:10 1018 30.06 847 25.01 -6.9 19.5 60 -13.5 7.6
07:15 1018 30.06 847 25.01 -6.4 20.4 57 -13.6 7.6
07:20 1018 30.06 847 25.01 -6.5 20.3 53 -14.6 5.8
07:25 1018 30.06 847 25.01 -6.3 20.7 49 -15.2 4.6
07:30 1018 30.06 847 25.01 -5.7 21.8 47 -15.2 4.6
07:35 1018 30.06 847 25.01 -5.3 22.4 48 -14.7 5.5
07:40 1018 30.06 847 25.01 -5.5 22 53 -13.6 7.6
07:45 1018 30.06 847 25.01 -6.2 20.9 56 -13.5 7.6
07:50 1018 30.06 847 25.01 -6.3 20.7 56 -13.7 7.3
07:55 1018 30.06 847 25.01 -6.7 20 58 -13.7 7.4
08:00 1018 30.06 847 25.01 -7 19.4 57 -14.2 6.4
08:05 1017 30.03 847 25.01 -5.2 22.7 45 -15.4 4.4
08:10 1017 30.03 847 25.01 -4.4 24 47 -14.2 6.4
08:15 1017 30.03 847 25.01 -4.9 23.1 49 -14.1 6.6
08:20 1018 30.06 847 25.01 -5.4 22.2 53 -13.5 7.7
08:25 1018 30.06 847 25.01 -5.8 21.5 56 -13.2 8.2
08:30 1018 30.06 847 25.01 -6 21.2 57 -13.2 8.2
08:35 1018 30.06 847 25.01 -5.8 21.5 58 -12.8 8.9
08:40 1018 30.06 848 25.04 -5.8 21.5 57 -13 8.7
08:45 1019 30.09 848 25.04 -5.9 21.4 54 -13.7 7.3
08:50 1019 30.09 848 25.04 -6.5 20.3 55 -14.1 6.5
08:55 1018 30.06 848 25.04 -7.2 19.1 57 -14.3 6.3
09:00 1018 30.06 848 25.04 -8.5 16.6 64 -14.3 6.3
09:05 1018 30.06 848 25.04 -9 15.8 64 -14.7 5.6
09:10 1018 30.06 847 25.01 -8.8 16.1 63 -14.6 5.8
09:15 1018 30.06 847 25.01 -8 17.5 62 -14 6.8
09:20 1018 30.06 847 25.01 -7.4 18.6 61 -13.8 7.2
09:25 1018 30.06 847 25.01 -6.7 19.9 61 -13.1 8.4
09:30 1018 30.06 847 25.01 -5.9 21.5 58 -12.9 8.8
09:35 1018 30.06 847 25.01 -5.2 22.7 56 -12.6 9.3
09:40 1018 30.06 847 25.01 -4.9 23.2 55 -12.5 9.4
09:45 1018 30.06 847 25.01 -4.8 23.3 55 -12.6 9.3
09:50 1018 30.06 847 25.01 -4.5 24 53 -12.7 9.1
09:55 1018 30.06 847 25.01 -4 24.8 51 -12.6 9.2
10:00 1018 30.06 847 25.01 -4.1 24.6 52 -12.5 9.4
10:05 1018 30.06 847 25.01 -4.7 23.6 54 -12.5 9.5
10:10 1018 30.06 847 25.01 -4.8 23.4 53 -12.9 8.9
10:15 1018 30.06 847 25.01 -4.6 23.7 53 -12.9 8.8
10:20 1018 30.06 847 25.01 -4.5 23.9 51 -13.2 8.3
10:25 1018 30.06 847 25.01 -3.8 25.1 49 -13.1 8.4
10:30 1018 30.06 847 25.01 -3.1 26.4 46 -13.2 8.2
10:35 1017 30.03 847 25.01 -3.1 26.4 47 -12.9 8.8
10:40 1017 30.03 847 25.01 -2.7 27.1 46 -12.7 9.1
10:45 1017 30.03 847 25.01 -1.9 28.6 44 -12.7 9.1
10:50 1017 30.03 847 25.01 -1.2 29.9 41 -12.8 9
10:55 1017 30.03 846 24.98 -0.7 30.7 40 -12.6 9.4
11:00 1017 30.03 846 24.98 -0.5 31.1 40 -12.4 9.7
11:05 1017 30.03 846 24.98 0.2 32.4 40 -11.9 10.6
11:10 1017 30.03 846 24.98 0.6 33 35 -13.2 8.2
11:15 1017 30.03 846 24.98 0.1 32.3 40 -11.9 10.6
11:20 1017 30.03 846 24.98 0.7 33.2 37 -12.3 9.8
11:25 1017 30.03 846 24.98 0.8 33.4 37 -12.3 9.9
11:30 1017 30.03 846 24.98 1.2 34.2 36 -12.4 9.7
11:35 1017 30.03 846 24.98 1.5 34.8 35 -12.2 10
11:40 1017 30.03 846 24.98 1.9 35.5 34 -12.3 9.9
11:45 1017 30.03 846 24.98 1.9 35.4 36 -11.9 10.7
11:50 1017 30.03 846 24.98 1.8 35.3 38 -11.1 12
11:55 1017 30.03 846 24.98 2.2 36 36 -11.5 11.4
12:00 1017 30.03 846 24.98 2 35.5 35 -12 10.4
12:05 1017 30.03 846 24.98 1.8 35.3 37 -11.5 11.4
12:10 1017 30.03 846 24.98 2.1 35.8 40 -10.1 13.8
12:15 1017 30.03 846 24.98 1.2 34.2 43 -9.9 14.1
12:20 1017 30.03 846 24.98 -0 31.9 49 -9.4 15.1
12:25 1017 30.03 846 24.98 -0.3 31.4 50 -9.4 15
12:30 1016 30 846 24.98 -0.7 30.7 52 -9.4 15.2
12:35 1016 30 846 24.98 -0.7 30.8 52 -9.4 15.1
12:40 1016 30 845 24.95 -0.4 31.2 50 -9.5 14.9
12:45 1016 30 845 24.95 -1.1 29.9 54 -9.2 15.4
12:50 1016 30 845 24.95 -0.9 30.4 53 -9.4 15.1
12:55 1016 30 845 24.95 -1.4 29.5 57 -8.8 16.1
13:00 1016 30 845 24.95 -1.1 30.1 51 -9.9 14.1
13:05 1016 30 845 24.95 -0.1 31.8 48 -9.9 14.2
13:10 1016 30 845 24.95 0.7 33.2 46 -9.7 14.5
13:15 1016 30 845 24.95 1.4 34.5 42 -10.3 13.5
13:20 1016 30 845 24.95 1.3 34.3 42 -10.3 13.5
13:25 1016 30 845 24.95 1.9 35.3 42 -9.7 14.6
13:30 1015 29.97 845 24.95 2.9 37.3 40 -9.5 14.9
13:35 1015 29.97 845 24.95 2.7 36.9 38 -10.3 13.5
13:40 1015 29.97 845 24.95 2.6 36.7 35 -11.3 11.7
13:45 1015 29.97 844 24.92 2.6 36.6 34 -11.6 11.1
13:50 1015 29.97 844 24.92 2.3 36.1 35 -11.6 11
13:55 1015 29.97 844 24.92 2.8 37 37 -10.4 13.2
14:00 1015 29.97 844 24.92 3.3 37.9 35 -10.7 12.7
14:05 1015 29.97 844 24.92 2.5 36.5 44 -8.5 16.8
14:10 1015 29.97 844 24.92 2 35.7 44 -9 15.8
14:15 1015 29.97 844 24.92 2.5 36.5 41 -9.4 15
14:20 1015 29.97 844 24.92 3.2 37.8 40 -9.1 15.6
14:25 1015 29.97 844 24.92 2.5 36.5 43 -8.8 16.1
14:30 1015 29.97 844 24.92 2.2 35.9 44 -8.9 16
14:35 1015 29.97 844 24.92 2.4 36.3 44 -8.7 16.3
14:40 1015 29.97 844 24.92 2 35.6 50 -7.3 18.9
14:45 1015 29.97 844 24.92 1.3 34.4 51 -7.7 18.2
14:50 1015 29.97 844 24.92 1.4 34.5 51 -7.8 18
14:55 1015 29.97 844 24.92 1.2 34.1 50 -8 17.6
15:00 1015 29.97 844 24.92 0.5 32.9 54 -7.6 18.3
15:05 1015 29.97 844 24.92 0.1 32.1 56 -7.8 18
15:10 1015 29.97 844 24.92 0.3 32.6 55 -7.7 18.2
15:15 1015 29.97 844 24.92 0.7 33.3 55 -7.3 18.8
15:20 1015 29.97 844 24.92 1.2 34.1 52 -7.5 18.5
15:25 1015 29.97 845 24.95 1.5 34.6 53 -7.1 19.2
15:30 1015 29.97 845 24.95 0.5 32.8 57 -7.2 19.1
15:35 1015 29.97 845 24.95 -0.1 31.8 57 -7.6 18.3
15:40 1015 29.97 845 24.95 -0.1 31.8 57 -7.6 18.4
15:45 1015 29.97 844 24.92 0.4 32.8 55 -7.5 18.5
15:50 1015 29.97 844 24.92 0.5 32.8 56 -7.4 18.6
15:55 1015 29.97 844 24.92 0 32 58 -7.4 18.8
16:00 1015 29.97 844 24.92 0.1 32.1 59 -7.1 19.2
16:05 1015 29.97 844 24.92 0.3 32.5 58 -7.1 19.3
16:10 1015 29.97 844 24.92 0.5 32.9 56 -7.2 19
16:15 1015 29.97 844 24.92 -0.2 31.7 60 -7.1 19.2
16:20 1015 29.97 844 24.92 -0.7 30.7 60 -7.5 18.6
16:25 1015 29.97 844 24.92 -0.6 31 60 -7.4 18.7
16:30 1015 29.97 844 24.92 -0.6 30.9 56 -8.4 16.9
16:35 1015 29.97 844 24.92 -0.6 31 56 -8.4 16.9
16:40 1015 29.97 844 24.92 -0.5 31.2 54 -8.6 16.5
16:45 1015 29.97 844 24.92 -0.3 31.4 56 -8.2 17.3
16:50 1015 29.97 844 24.92 -0.2 31.6 52 -8.8 16.1
16:55 1015 29.97 844 24.92 -0.1 31.9 55 -8.1 17.4
17:00 1015 29.97 844 24.92 -0.2 31.7 57 -7.8 18
17:05 1015 29.97 844 24.92 -0.3 31.4 57 -7.8 18
17:10 1015 29.97 845 24.95 -0.2 31.7 54 -8.5 16.7
17:15 1016 30 845 24.95 -0.3 31.5 53 -8.8 16.1
17:20 1016 30 845 24.95 -0.2 31.7 54 -8.4 16.8
17:25 1016 30 845 24.95 -0.3 31.5 54 -8.4 16.9
17:30 1016 30 845 24.95 -0.4 31.3 58 -7.8 18
17:35 1016 30 845 24.95 -0.6 30.9 59 -7.8 18
17:40 1016 30 845 24.95 -1 30.1 59 -8.1 17.5
17:45 1016 30 845 24.95 -1.5 29.2 57 -8.9 16
17:50 1016 30 845 24.95 -2.1 28.3 60 -8.8 16.1
17:55 1016 30 845 24.95 -2.1 28.2 57 -9.6 14.8
18:00 1016 30 845 24.95 -1.3 29.6 48 -11.1 12
18:05 1016 30 845 24.95 -0.7 30.8 49 -10.2 13.6
18:10 1016 30 845 24.95 -0.6 30.9 46 -10.8 12.6
18:15 1016 30 845 24.95 -0.6 30.8 50 -9.7 14.5
18:10 1016 30 845 24.95 -0.6 30.9 46 -10.8 12.6
18:15 1016 30 845 24.95 -0.6 30.8 50 -9.7 14.5
18:20 1016 30 845 24.95 -0.4 31.4 45 -11 12.2
18:25 1015 29.97 845 24.95 0.4 32.6 44 -10.5 13.1
18:30 1015 29.97 845 24.95 0.3 32.6 47 -9.7 14.5
18:35 1015 29.97 845 24.95 -0.4 31.2 51 -9.3 15.3
18:40 1015 29.97 845 24.95 -1.1 30.1 51 -9.9 14.2
18:45 1016 30 845 24.95 -1 30.2 52 -9.6 14.7
18:50 1016 30 845 24.95 -0.9 30.4 53 -9.4 15.1
18:55 1016 30 845 24.95 -0.5 31.1 51 -9.6 14.8
19:00 1016 30 845 24.95 -0.5 31.1 51 -9.5 14.8
19:05 1016 30 845 24.95 -0.6 30.8 52 -9.3 15.3
19:10 1016 30 845 24.95 -1 30.3 55 -8.8 16.1
19:15 1016 30 845 24.95 -1.2 29.8 55 -9.2 15.4
19:20 1016 30 845 24.95 -1.3 29.7 56 -9.1 15.7
19:25 1016 30 845 24.95 -1.4 29.5 57 -8.8 16.2
19:30 1016 30 845 24.95 -1.1 30 54 -9.2 15.5
19:35 1016 30 845 24.95 -0.9 30.3 52 -9.7 14.6
19:40 1016 30 845 24.95 -0.6 31 48 -10.2 13.6
19:45 1016 30 845 24.95 -0.4 31.3 48 -10.1 13.8
19:50 1016 30 845 24.95 -0.5 31 50 -9.8 14.3
19:55 1016 30 845 24.95 -0.7 30.7 50 -9.8 14.3
20:00 1016 30 845 24.95 -0.8 30.6 51 -9.7 14.5
20:05 1016 30 845 24.95 -0.7 30.8 50 -9.9 14.2
20:10 1016 30 845 24.95 -0.5 31.1 51 -9.4 15.1
20:15 1016 30 845 24.95 -0.5 31.1 54 -8.7 16.3
20:20 1016 30 845 24.95 -0.7 30.7 54 -8.9 15.9
20:25 1016 30 845 24.95 -0.4 31.2 50 -9.7 14.5
20:30 1016 30 845 24.95 -0.3 31.5 51 -9.1 15.6
20:35 1016 30 845 24.95 -0.6 30.8 53 -9.1 15.6
20:40 1016 30 845 24.95 -0.9 30.3 56 -8.6 16.5
20:45 1016 30 845 24.95 -1.2 29.9 55 -9.1 15.5
20:50 1016 30 845 24.95 -0.9 30.4 52 -9.7 14.6
20:55 1016 30 845 24.95 -0.7 30.8 51 -9.6 14.7
21:00 1016 30 845 24.95 -0.6 30.9 50 -9.8 14.4
21:05 1016 30 845 24.95 -0.3 31.4 50 -9.6 14.8
21:10 1016 30 845 24.95 -0.3 31.5 49 -9.7 14.5
21:15 1016 30 845 24.95 -0.4 31.4 47 -10.3 13.4
21:20 1016 30 845 24.95 -0.1 31.9 48 -9.8 14.4
21:25 1016 30 845 24.95 0.1 32.2 47 -9.8 14.3
21:30 1016 30 845 24.95 0.3 32.6 49 -9.2 15.5
21:35 1016 30 845 24.95 0.4 32.7 50 -8.8 16.1
21:40 1016 30 845 24.95 0.3 32.5 53 -8.3 17
21:45 1016 30 845 24.95 0.2 32.4 52 -8.6 16.5
21:50 1016 30 845 24.95 0.3 32.5 52 -8.4 16.9
21:55 1016 30 845 24.95 0.1 32.1 54 -8.1 17.5
22:00 1016 30 845 24.95 -0.4 31.3 55 -8.5 16.8
22:05 1016 30 845 24.95 -0.6 30.9 52 -9.3 15.3
22:10 1016 30 845 24.95 -0.6 30.9 53 -9.1 15.7
22:15 1016 30 845 24.95 -0.5 31.1 57 -8.1 17.5
22:20 1016 30 845 24.95 -0.6 31 59 -7.7 18.1
22:25 1016 30 845 24.95 -1 30.2 62 -7.4 18.6
22:30 1016 30 845 24.95 -1.2 29.8 58 -8.4 16.8
22:35 1016 30 845 24.95 -1.1 30 57 -8.5 16.8
22:40 1016 30 845 24.95 -0.9 30.5 58 -8.1 17.4
22:45 1016 30 845 24.95 -0.7 30.7 58 -8 17.7
22:50 1016 30 845 24.95 -0.8 30.6 54 -9 15.7
22:55 1016 30 845 24.95 -0.7 30.7 52 -9.4 15.1
23:00 1016 30 845 24.95 -0.5 31 52 -9.3 15.3
23:05 1016 30 845 24.95 -0.6 30.8 56 -8.4 16.8
23:10 1016 30 845 24.95 -0.5 31.2 53 -8.8 16.1
23:15 1016 30 845 24.95 -0.6 31 56 -8.4 16.9
23:20 1016 30 845 24.95 -0.4 31.3 55 -8.3 17
23:25 1016 30 845 24.95 -0.2 31.7 56 -7.9 17.7
23:30 1016 30 845 24.95 -0.1 31.9 56 -7.9 17.9
23:35 1016 30 845 24.95 -0.1 31.9 57 -7.5 18.4
23:40 1016 30 845 24.95 -0.2 31.7 57 -7.6 18.3
23:45 1016 30 845 24.95 -0.3 31.5 56 -8.1 17.4
23:50 1016 30 845 24.95 -0.3 31.4 57 -7.9 17.8
23:55 1016 30 845 24.95 -0.4 31.4 56 -8.1 17.3
24:00 1016 30 846 24.98 -0.3 31.4 55 -8.3 17.1